sensor_id;sensor_type;location;lat;lon;timestamp;P1;durP1;ratioP1;P2;durP2;ratioP2
3789;SDS011;1910;49.042;9.028;2023-03-24T00:00:16;4.50;;;2.57;;
3789;SDS011;1910;49.042;9.028;2023-03-24T00:02:45;2.90;;;2.30;;
3789;SDS011;1910;49.042;9.028;2023-03-24T00:05:16;2.00;;;1.77;;
3789;SDS011;1910;49.042;9.028;2023-03-24T00:07:43;3.20;;;2.30;;
3789;SDS011;1910;49.042;9.028;2023-03-24T00:10:10;2.47;;;1.90;;
3789;SDS011;1910;49.042;9.028;2023-03-24T00:12:38;2.60;;;2.40;;
3789;SDS011;1910;49.042;9.028;2023-03-24T00:15:07;3.23;;;1.77;;
3789;SDS011;1910;49.042;9.028;2023-03-24T00:17:35;10.50;;;2.20;;
3789;SDS011;1910;49.042;9.028;2023-03-24T00:20:03;4.30;;;2.33;;
3789;SDS011;1910;49.042;9.028;2023-03-24T00:22:32;2.27;;;2.07;;
3789;SDS011;1910;49.042;9.028;2023-03-24T00:24:58;2.30;;;1.63;;
3789;SDS011;1910;49.042;9.028;2023-03-24T00:27:24;4.40;;;2.83;;
3789;SDS011;1910;49.042;9.028;2023-03-24T00:29:49;2.77;;;2.17;;
3789;SDS011;1910;49.042;9.028;2023-03-24T00:32:15;4.23;;;2.60;;
3789;SDS011;1910;49.042;9.028;2023-03-24T00:34:41;7.90;;;2.63;;
3789;SDS011;1910;49.042;9.028;2023-03-24T00:37:07;5.07;;;1.93;;
3789;SDS011;1910;49.042;9.028;2023-03-24T00:39:32;3.53;;;2.20;;
3789;SDS011;1910;49.042;9.028;2023-03-24T00:41:58;3.37;;;2.30;;
3789;SDS011;1910;49.042;9.028;2023-03-24T00:44:25;3.63;;;2.80;;
3789;SDS011;1910;49.042;9.028;2023-03-24T00:46:51;4.97;;;2.63;;
3789;SDS011;1910;49.042;9.028;2023-03-24T00:49:29;3.60;;;2.90;;
3789;SDS011;1910;49.042;9.028;2023-03-24T00:52:12;3.00;;;2.40;;
3789;SDS011;1910;49.042;9.028;2023-03-24T00:54:42;2.30;;;2.10;;
3789;SDS011;1910;49.042;9.028;2023-03-24T00:57:09;4.27;;;2.20;;
3789;SDS011;1910;49.042;9.028;2023-03-24T00:59:37;3.27;;;2.63;;
3789;SDS011;1910;49.042;9.028;2023-03-24T01:02:09;4.60;;;2.13;;
3789;SDS011;1910;49.042;9.028;2023-03-24T01:04:37;3.10;;;2.47;;
3789;SDS011;1910;49.042;9.028;2023-03-24T01:07:03;2.73;;;2.10;;
3789;SDS011;1910;49.042;9.028;2023-03-24T01:09:29;7.53;;;3.20;;
3789;SDS011;1910;49.042;9.028;2023-03-24T01:11:55;2.88;;;2.50;;
3789;SDS011;1910;49.042;9.028;2023-03-24T01:14:21;4.70;;;2.33;;
3789;SDS011;1910;49.042;9.028;2023-03-24T01:16:46;2.97;;;2.50;;
3789;SDS011;1910;49.042;9.028;2023-03-24T01:19:12;3.50;;;2.30;;
3789;SDS011;1910;49.042;9.028;2023-03-24T01:21:38;4.53;;;2.43;;
3789;SDS011;1910;49.042;9.028;2023-03-24T01:24:04;3.97;;;3.00;;
3789;SDS011;1910;49.042;9.028;2023-03-24T01:26:29;3.30;;;2.10;;
3789;SDS011;1910;49.042;9.028;2023-03-24T01:28:55;5.97;;;2.80;;
3789;SDS011;1910;49.042;9.028;2023-03-24T01:31:21;5.70;;;2.37;;
3789;SDS011;1910;49.042;9.028;2023-03-24T01:33:47;3.67;;;2.40;;
3789;SDS011;1910;49.042;9.028;2023-03-24T01:36:12;5.80;;;2.30;;
3789;SDS011;1910;49.042;9.028;2023-03-24T01:38:38;2.93;;;1.60;;
3789;SDS011;1910;49.042;9.028;2023-03-24T01:41:05;3.40;;;2.33;;
3789;SDS011;1910;49.042;9.028;2023-03-24T01:43:31;3.70;;;2.30;;
3789;SDS011;1910;49.042;9.028;2023-03-24T01:46:00;4.03;;;2.50;;
3789;SDS011;1910;49.042;9.028;2023-03-24T01:51:11;4.40;;;2.70;;
3789;SDS011;1910;49.042;9.028;2023-03-24T01:53:56;4.77;;;2.87;;
3789;SDS011;1910;49.042;9.028;2023-03-24T01:56:22;4.50;;;2.00;;
3789;SDS011;1910;49.042;9.028;2023-03-24T01:58:54;4.87;;;2.17;;
3789;SDS011;1910;49.042;9.028;2023-03-24T02:01:25;3.67;;;2.50;;
3789;SDS011;1910;49.042;9.028;2023-03-24T02:03:55;2.40;;;1.77;;
3789;SDS011;1910;49.042;9.028;2023-03-24T02:06:22;5.00;;;2.67;;
3789;SDS011;1910;49.042;9.028;2023-03-24T02:08:56;2.67;;;2.47;;
3789;SDS011;1910;49.042;9.028;2023-03-24T02:11:24;2.50;;;2.03;;
3789;SDS011;1910;49.042;9.028;2023-03-24T02:13:52;4.13;;;2.30;;
3789;SDS011;1910;49.042;9.028;2023-03-24T02:16:28;2.90;;;1.93;;
3789;SDS011;1910;49.042;9.028;2023-03-24T02:19:28;2.37;;;2.00;;
3789;SDS011;1910;49.042;9.028;2023-03-24T02:25:00;5.23;;;2.70;;
3789;SDS011;1910;49.042;9.028;2023-03-24T02:33:04;3.33;;;2.27;;
3789;SDS011;1910;49.042;9.028;2023-03-24T02:41:40;4.00;;;2.50;;
3789;SDS011;1910;49.042;9.028;2023-03-24T02:44:29;1.67;;;1.57;;
3789;SDS011;1910;49.042;9.028;2023-03-24T02:47:05;3.43;;;1.53;;
3789;SDS011;1910;49.042;9.028;2023-03-24T02:52:47;3.27;;;2.20;;
3789;SDS011;1910;49.042;9.028;2023-03-24T02:55:22;2.77;;;1.67;;
3789;SDS011;1910;49.042;9.028;2023-03-24T02:58:05;2.53;;;2.00;;
3789;SDS011;1910;49.042;9.028;2023-03-24T03:00:41;3.47;;;1.90;;
3789;SDS011;1910;49.042;9.028;2023-03-24T03:03:15;2.67;;;2.30;;
3789;SDS011;1910;49.042;9.028;2023-03-24T03:05:55;2.57;;;2.20;;
3789;SDS011;1910;49.042;9.028;2023-03-24T03:08:26;3.83;;;2.10;;
3789;SDS011;1910;49.042;9.028;2023-03-24T03:10:53;4.90;;;2.23;;
3789;SDS011;1910;49.042;9.028;2023-03-24T03:16:20;7.00;;;2.53;;
3789;SDS011;1910;49.042;9.028;2023-03-24T03:18:57;2.60;;;1.63;;
3789;SDS011;1910;49.042;9.028;2023-03-24T03:21:25;3.77;;;2.27;;
3789;SDS011;1910;49.042;9.028;2023-03-24T03:23:57;3.60;;;1.90;;
3789;SDS011;1910;49.042;9.028;2023-03-24T03:26:26;3.97;;;1.83;;
3789;SDS011;1910;49.042;9.028;2023-03-24T03:28:57;2.83;;;1.80;;
3789;SDS011;1910;49.042;9.028;2023-03-24T03:31:34;2.73;;;1.80;;
3789;SDS011;1910;49.042;9.028;2023-03-24T03:34:24;2.77;;;1.87;;
3789;SDS011;1910;49.042;9.028;2023-03-24T03:40:13;3.77;;;1.80;;
3789;SDS011;1910;49.042;9.028;2023-03-24T03:42:59;3.60;;;2.50;;
3789;SDS011;1910;49.042;9.028;2023-03-24T03:45:24;3.57;;;1.80;;
3789;SDS011;1910;49.042;9.028;2023-03-24T03:47:50;3.33;;;2.03;;
3789;SDS011;1910;49.042;9.028;2023-03-24T03:50:16;3.20;;;2.17;;
3789;SDS011;1910;49.042;9.028;2023-03-24T03:52:41;2.70;;;1.97;;
3789;SDS011;1910;49.042;9.028;2023-03-24T03:55:08;4.33;;;2.13;;
3789;SDS011;1910;49.042;9.028;2023-03-24T03:57:35;2.90;;;2.10;;
3789;SDS011;1910;49.042;9.028;2023-03-24T04:00:02;3.47;;;1.87;;
3789;SDS011;1910;49.042;9.028;2023-03-24T04:11:22;3.13;;;2.50;;
3789;SDS011;1910;49.042;9.028;2023-03-24T04:14:15;6.00;;;1.80;;
3789;SDS011;1910;49.042;9.028;2023-03-24T04:16:55;4.10;;;2.03;;
3789;SDS011;1910;49.042;9.028;2023-03-24T04:25:33;2.57;;;2.37;;
3789;SDS011;1910;49.042;9.028;2023-03-24T04:31:13;3.30;;;2.17;;
3789;SDS011;1910;49.042;9.028;2023-03-24T04:34:30;2.80;;;1.97;;
3789;SDS011;1910;49.042;9.028;2023-03-24T04:36:41;2.37;;;1.63;;
3789;SDS011;1910;49.042;9.028;2023-03-24T04:39:15;1.50;;;1.40;;
3789;SDS011;1910;49.042;9.028;2023-03-24T04:41:49;2.53;;;1.93;;
3789;SDS011;1910;49.042;9.028;2023-03-24T04:44:16;3.33;;;1.90;;
3789;SDS011;1910;49.042;9.028;2023-03-24T04:46:45;2.17;;;1.50;;
3789;SDS011;1910;49.042;9.028;2023-03-24T04:49:15;2.10;;;1.90;;
3789;SDS011;1910;49.042;9.028;2023-03-24T04:51:43;4.30;;;2.17;;
3789;SDS011;1910;49.042;9.028;2023-03-24T04:54:09;2.10;;;1.60;;
3789;SDS011;1910;49.042;9.028;2023-03-24T04:56:45;2.10;;;1.90;;
3789;SDS011;1910;49.042;9.028;2023-03-24T04:59:14;4.80;;;2.30;;
3789;SDS011;1910;49.042;9.028;2023-03-24T05:01:41;4.40;;;2.20;;
3789;SDS011;1910;49.042;9.028;2023-03-24T05:04:17;2.80;;;2.00;;
3789;SDS011;1910;49.042;9.028;2023-03-24T05:06:44;2.13;;;1.90;;
3789;SDS011;1910;49.042;9.028;2023-03-24T05:09:10;2.50;;;2.10;;
3789;SDS011;1910;49.042;9.028;2023-03-24T05:11:45;4.10;;;2.60;;
3789;SDS011;1910;49.042;9.028;2023-03-24T05:14:11;3.17;;;2.40;;
3789;SDS011;1910;49.042;9.028;2023-03-24T05:16:36;4.50;;;2.80;;
3789;SDS011;1910;49.042;9.028;2023-03-24T05:19:02;3.70;;;3.27;;
3789;SDS011;1910;49.042;9.028;2023-03-24T05:21:29;4.95;;;4.13;;
3789;SDS011;1910;49.042;9.028;2023-03-24T05:23:55;4.50;;;3.37;;
3789;SDS011;1910;49.042;9.028;2023-03-24T05:26:20;6.43;;;3.03;;
3789;SDS011;1910;49.042;9.028;2023-03-24T05:28:46;4.77;;;3.27;;
3789;SDS011;1910;49.042;9.028;2023-03-24T05:31:11;8.93;;;3.70;;
3789;SDS011;1910;49.042;9.028;2023-03-24T05:33:37;6.17;;;3.63;;
3789;SDS011;1910;49.042;9.028;2023-03-24T05:36:03;5.50;;;3.30;;
3789;SDS011;1910;49.042;9.028;2023-03-24T05:38:29;4.50;;;4.10;;
3789;SDS011;1910;49.042;9.028;2023-03-24T05:40:57;2.70;;;2.40;;
3789;SDS011;1910;49.042;9.028;2023-03-24T05:43:23;4.22;;;3.00;;
3789;SDS011;1910;49.042;9.028;2023-03-24T05:45:49;3.87;;;2.70;;
3789;SDS011;1910;49.042;9.028;2023-03-24T05:48:15;4.43;;;3.23;;
3789;SDS011;1910;49.042;9.028;2023-03-24T05:50:40;4.20;;;3.30;;
3789;SDS011;1910;49.042;9.028;2023-03-24T05:53:06;3.43;;;2.73;;
3789;SDS011;1910;49.042;9.028;2023-03-24T05:55:31;4.20;;;3.13;;
3789;SDS011;1910;49.042;9.028;2023-03-24T05:57:57;3.70;;;2.50;;
3789;SDS011;1910;49.042;9.028;2023-03-24T06:00:26;6.03;;;3.20;;
3789;SDS011;1910;49.042;9.028;2023-03-24T06:02:55;5.22;;;3.13;;
3789;SDS011;1910;49.042;9.028;2023-03-24T06:05:22;4.57;;;3.35;;
3789;SDS011;1910;49.042;9.028;2023-03-24T06:07:48;7.88;;;3.08;;
3789;SDS011;1910;49.042;9.028;2023-03-24T06:10:14;6.90;;;3.10;;
3789;SDS011;1910;49.042;9.028;2023-03-24T06:12:42;4.55;;;3.33;;
3789;SDS011;1910;49.042;9.028;2023-03-24T06:15:09;4.05;;;3.15;;
3789;SDS011;1910;49.042;9.028;2023-03-24T06:17:35;4.43;;;3.40;;
3789;SDS011;1910;49.042;9.028;2023-03-24T06:20:01;4.60;;;3.50;;
3789;SDS011;1910;49.042;9.028;2023-03-24T06:22:29;2.97;;;2.67;;
3789;SDS011;1910;49.042;9.028;2023-03-24T06:24:56;4.78;;;3.55;;
3789;SDS011;1910;49.042;9.028;2023-03-24T06:27:22;4.75;;;3.42;;
3789;SDS011;1910;49.042;9.028;2023-03-24T06:29:58;5.82;;;3.20;;
3789;SDS011;1910;49.042;9.028;2023-03-24T06:32:24;5.87;;;3.53;;
3789;SDS011;1910;49.042;9.028;2023-03-24T06:34:50;5.13;;;3.13;;
3789;SDS011;1910;49.042;9.028;2023-03-24T06:37:16;5.10;;;3.50;;
3789;SDS011;1910;49.042;9.028;2023-03-24T06:39:41;4.60;;;3.73;;
3789;SDS011;1910;49.042;9.028;2023-03-24T06:42:07;8.20;;;3.10;;
3789;SDS011;1910;49.042;9.028;2023-03-24T06:44:33;13.20;;;7.73;;
3789;SDS011;1910;49.042;9.028;2023-03-24T06:46:58;7.43;;;6.23;;
3789;SDS011;1910;49.042;9.028;2023-03-24T06:49:24;14.37;;;7.10;;
3789;SDS011;1910;49.042;9.028;2023-03-24T06:51:49;5.30;;;3.83;;
3789;SDS011;1910;49.042;9.028;2023-03-24T06:54:15;5.23;;;3.93;;
3789;SDS011;1910;49.042;9.028;2023-03-24T06:56:41;4.50;;;3.90;;
3789;SDS011;1910;49.042;9.028;2023-03-24T06:59:07;7.20;;;4.00;;
3789;SDS011;1910;49.042;9.028;2023-03-24T07:01:33;7.03;;;4.10;;
3789;SDS011;1910;49.042;9.028;2023-03-24T07:03:59;12.23;;;3.58;;
3789;SDS011;1910;49.042;9.028;2023-03-24T07:06:25;7.07;;;4.40;;
3789;SDS011;1910;49.042;9.028;2023-03-24T07:08:51;8.07;;;4.20;;
3789;SDS011;1910;49.042;9.028;2023-03-24T07:11:16;5.27;;;3.70;;
3789;SDS011;1910;49.042;9.028;2023-03-24T07:13:42;6.40;;;3.70;;
3789;SDS011;1910;49.042;9.028;2023-03-24T07:16:08;5.17;;;3.60;;
3789;SDS011;1910;49.042;9.028;2023-03-24T07:18:33;4.17;;;3.77;;
3789;SDS011;1910;49.042;9.028;2023-03-24T07:20:59;4.30;;;3.67;;
3789;SDS011;1910;49.042;9.028;2023-03-24T07:23:24;7.40;;;4.07;;
3789;SDS011;1910;49.042;9.028;2023-03-24T07:25:51;4.20;;;3.78;;
3789;SDS011;1910;49.042;9.028;2023-03-24T07:28:17;5.57;;;3.17;;
3789;SDS011;1910;49.042;9.028;2023-03-24T07:30:43;4.27;;;3.30;;
3789;SDS011;1910;49.042;9.028;2023-03-24T07:33:09;3.57;;;2.73;;
3789;SDS011;1910;49.042;9.028;2023-03-24T07:35:36;2.60;;;2.00;;
3789;SDS011;1910;49.042;9.028;2023-03-24T07:38:03;5.43;;;2.92;;
3789;SDS011;1910;49.042;9.028;2023-03-24T07:40:29;6.55;;;3.08;;
3789;SDS011;1910;49.042;9.028;2023-03-24T07:42:57;7.23;;;3.70;;
3789;SDS011;1910;49.042;9.028;2023-03-24T07:45:25;10.25;;;3.08;;
3789;SDS011;1910;49.042;9.028;2023-03-24T07:47:51;4.32;;;2.83;;
3789;SDS011;1910;49.042;9.028;2023-03-24T07:50:16;2.30;;;2.10;;
3789;SDS011;1910;49.042;9.028;2023-03-24T07:52:47;3.67;;;2.90;;
3789;SDS011;1910;49.042;9.028;2023-03-24T07:55:13;6.00;;;2.72;;
3789;SDS011;1910;49.042;9.028;2023-03-24T07:57:40;3.55;;;3.00;;
3789;SDS011;1910;49.042;9.028;2023-03-24T08:00:07;7.28;;;4.80;;
3789;SDS011;1910;49.042;9.028;2023-03-24T08:02:46;8.55;;;4.82;;
3789;SDS011;1910;49.042;9.028;2023-03-24T08:05:13;5.50;;;4.07;;
3789;SDS011;1910;49.042;9.028;2023-03-24T08:07:40;4.75;;;3.42;;
3789;SDS011;1910;49.042;9.028;2023-03-24T08:10:15;6.40;;;4.10;;
3789;SDS011;1910;49.042;9.028;2023-03-24T08:12:41;8.57;;;1.95;;
3789;SDS011;1910;49.042;9.028;2023-03-24T08:15:07;3.33;;;3.03;;
3789;SDS011;1910;49.042;9.028;2023-03-24T08:17:34;6.55;;;2.97;;
3789;SDS011;1910;49.042;9.028;2023-03-24T08:20:01;4.75;;;2.88;;
3789;SDS011;1910;49.042;9.028;2023-03-24T08:22:38;3.92;;;2.50;;
3789;SDS011;1910;49.042;9.028;2023-03-24T08:25:09;6.83;;;3.57;;
3789;SDS011;1910;49.042;9.028;2023-03-24T08:27:36;7.38;;;3.63;;
3789;SDS011;1910;49.042;9.028;2023-03-24T08:30:03;4.40;;;3.25;;
3789;SDS011;1910;49.042;9.028;2023-03-24T08:32:31;2.53;;;2.30;;
3789;SDS011;1910;49.042;9.028;2023-03-24T08:34:57;5.47;;;2.70;;
3789;SDS011;1910;49.042;9.028;2023-03-24T08:37:22;5.00;;;2.90;;
3789;SDS011;1910;49.042;9.028;2023-03-24T08:39:48;3.67;;;3.37;;
3789;SDS011;1910;49.042;9.028;2023-03-24T08:42:13;3.27;;;2.73;;
3789;SDS011;1910;49.042;9.028;2023-03-24T08:44:39;6.73;;;2.63;;
3789;SDS011;1910;49.042;9.028;2023-03-24T08:47:05;3.33;;;2.57;;
3789;SDS011;1910;49.042;9.028;2023-03-24T08:49:31;3.13;;;2.67;;
3789;SDS011;1910;49.042;9.028;2023-03-24T08:51:57;4.70;;;2.60;;
3789;SDS011;1910;49.042;9.028;2023-03-24T08:54:22;9.30;;;3.83;;
3789;SDS011;1910;49.042;9.028;2023-03-24T08:56:50;4.13;;;3.70;;
3789;SDS011;1910;49.042;9.028;2023-03-24T08:59:15;2.53;;;1.90;;
3789;SDS011;1910;49.042;9.028;2023-03-24T09:01:41;3.50;;;2.20;;
3789;SDS011;1910;49.042;9.028;2023-03-24T09:04:06;6.10;;;3.63;;
3789;SDS011;1910;49.042;9.028;2023-03-24T09:06:32;5.10;;;3.20;;
3789;SDS011;1910;49.042;9.028;2023-03-24T09:08:58;3.00;;;1.97;;
3789;SDS011;1910;49.042;9.028;2023-03-24T09:11:23;2.20;;;2.00;;
3789;SDS011;1910;49.042;9.028;2023-03-24T09:13:49;2.60;;;2.40;;
3789;SDS011;1910;49.042;9.028;2023-03-24T09:16:15;3.93;;;2.87;;
3789;SDS011;1910;49.042;9.028;2023-03-24T09:18:41;2.90;;;1.60;;
3789;SDS011;1910;49.042;9.028;2023-03-24T09:21:07;3.60;;;2.30;;
3789;SDS011;1910;49.042;9.028;2023-03-24T09:23:33;2.70;;;1.77;;
3789;SDS011;1910;49.042;9.028;2023-03-24T09:25:59;3.03;;;2.20;;
3789;SDS011;1910;49.042;9.028;2023-03-24T09:28:27;2.20;;;2.00;;
3789;SDS011;1910;49.042;9.028;2023-03-24T09:31:00;2.40;;;2.20;;
3789;SDS011;1910;49.042;9.028;2023-03-24T09:33:27;2.60;;;1.67;;
3789;SDS011;1910;49.042;9.028;2023-03-24T09:35:57;1.77;;;1.40;;
3789;SDS011;1910;49.042;9.028;2023-03-24T09:38:25;2.50;;;2.13;;
3789;SDS011;1910;49.042;9.028;2023-03-24T09:40:53;4.10;;;2.20;;
3789;SDS011;1910;49.042;9.028;2023-03-24T09:43:26;2.37;;;2.00;;
3789;SDS011;1910;49.042;9.028;2023-03-24T09:46:05;2.00;;;1.37;;
3789;SDS011;1910;49.042;9.028;2023-03-24T09:48:39;1.43;;;1.20;;
3789;SDS011;1910;49.042;9.028;2023-03-24T09:51:11;1.30;;;1.20;;
3789;SDS011;1910;49.042;9.028;2023-03-24T09:56:38;2.80;;;1.43;;
3789;SDS011;1910;49.042;9.028;2023-03-24T09:59:15;3.03;;;2.43;;
3789;SDS011;1910;49.042;9.028;2023-03-24T10:01:55;2.97;;;1.87;;
3789;SDS011;1910;49.042;9.028;2023-03-24T10:04:23;3.13;;;2.80;;
3789;SDS011;1910;49.042;9.028;2023-03-24T10:06:52;2.40;;;1.10;;
3789;SDS011;1910;49.042;9.028;2023-03-24T10:09:31;3.20;;;2.67;;
3789;SDS011;1910;49.042;9.028;2023-03-24T10:12:03;3.10;;;1.90;;
3789;SDS011;1910;49.042;9.028;2023-03-24T10:17:42;1.90;;;1.10;;
3789;SDS011;1910;49.042;9.028;2023-03-24T10:31:15;1.10;;;1.00;;
3789;SDS011;1910;49.042;9.028;2023-03-24T10:33:44;1.60;;;1.13;;
3789;SDS011;1910;49.042;9.028;2023-03-24T10:36:11;1.47;;;1.37;;
3789;SDS011;1910;49.042;9.028;2023-03-24T10:38:40;3.53;;;1.87;;
3789;SDS011;1910;49.042;9.028;2023-03-24T10:41:06;2.27;;;1.30;;
3789;SDS011;1910;49.042;9.028;2023-03-24T10:43:36;1.70;;;1.07;;
3789;SDS011;1910;49.042;9.028;2023-03-24T10:46:02;2.23;;;1.20;;
3789;SDS011;1910;49.042;9.028;2023-03-24T10:48:44;1.90;;;1.53;;
3789;SDS011;1910;49.042;9.028;2023-03-24T10:51:33;2.27;;;1.10;;
3789;SDS011;1910;49.042;9.028;2023-03-24T10:54:23;0.70;;;0.70;;
3789;SDS011;1910;49.042;9.028;2023-03-24T10:56:51;1.20;;;1.10;;
3789;SDS011;1910;49.042;9.028;2023-03-24T10:59:30;2.60;;;0.60;;
3789;SDS011;1910;49.042;9.028;2023-03-24T11:02:15;0.70;;;0.63;;
3789;SDS011;1910;49.042;9.028;2023-03-24T11:04:56;0.93;;;0.67;;
3789;SDS011;1910;49.042;9.028;2023-03-24T11:07:37;1.33;;;1.00;;
3789;SDS011;1910;49.042;9.028;2023-03-24T11:10:15;1.23;;;0.90;;
3789;SDS011;1910;49.042;9.028;2023-03-24T11:15:33;0.83;;;0.63;;
3789;SDS011;1910;49.042;9.028;2023-03-24T11:18:13;0.80;;;0.77;;
3789;SDS011;1910;49.042;9.028;2023-03-24T11:20:44;1.93;;;1.10;;
3789;SDS011;1910;49.042;9.028;2023-03-24T11:23:17;0.60;;;0.60;;
3789;SDS011;1910;49.042;9.028;2023-03-24T11:25:46;3.10;;;0.90;;
3789;SDS011;1910;49.042;9.028;2023-03-24T11:28:18;0.97;;;0.67;;
3789;SDS011;1910;49.042;9.028;2023-03-24T11:30:49;1.60;;;0.90;;
3789;SDS011;1910;49.042;9.028;2023-03-24T11:33:29;0.70;;;0.57;;
3789;SDS011;1910;49.042;9.028;2023-03-24T11:35:58;1.00;;;0.80;;
3789;SDS011;1910;49.042;9.028;2023-03-24T11:38:32;0.97;;;0.83;;
3789;SDS011;1910;49.042;9.028;2023-03-24T11:41:00;1.53;;;0.90;;
3789;SDS011;1910;49.042;9.028;2023-03-24T11:43:29;1.23;;;0.77;;
3789;SDS011;1910;49.042;9.028;2023-03-24T11:46:04;0.60;;;0.60;;
3789;SDS011;1910;49.042;9.028;2023-03-24T11:48:49;0.80;;;0.73;;
3789;SDS011;1910;49.042;9.028;2023-03-24T11:51:31;1.63;;;0.70;;
3789;SDS011;1910;49.042;9.028;2023-03-24T11:54:02;1.53;;;0.70;;
3789;SDS011;1910;49.042;9.028;2023-03-24T11:59:06;1.40;;;0.70;;
3789;SDS011;1910;49.042;9.028;2023-03-24T12:07:33;1.10;;;0.63;;
3789;SDS011;1910;49.042;9.028;2023-03-24T12:13:25;0.60;;;0.60;;
3789;SDS011;1910;49.042;9.028;2023-03-24T12:16:13;0.70;;;0.47;;
3789;SDS011;1910;49.042;9.028;2023-03-24T12:24:17;0.50;;;0.50;;
3789;SDS011;1910;49.042;9.028;2023-03-24T12:26:57;0.70;;;0.60;;
3789;SDS011;1910;49.042;9.028;2023-03-24T12:29:27;1.00;;;0.73;;
3789;SDS011;1910;49.042;9.028;2023-03-24T12:43:46;1.55;;;0.70;;
3789;SDS011;1910;49.042;9.028;2023-03-24T12:46:00;0.75;;;0.55;;
3789;SDS011;1910;49.042;9.028;2023-03-24T12:48:49;2.45;;;1.73;;
3789;SDS011;1910;49.042;9.028;2023-03-24T12:54:59;11.80;;;1.63;;
3789;SDS011;1910;49.042;9.028;2023-03-24T12:57:36;2.75;;;0.80;;
3789;SDS011;1910;49.042;9.028;2023-03-24T13:00:45;2.45;;;0.98;;
3789;SDS011;1910;49.042;9.028;2023-03-24T13:03:17;2.78;;;0.60;;
3789;SDS011;1910;49.042;9.028;2023-03-24T13:05:48;3.83;;;1.10;;
3789;SDS011;1910;49.042;9.028;2023-03-24T13:08:18;0.88;;;0.80;;
3789;SDS011;1910;49.042;9.028;2023-03-24T13:10:48;2.40;;;1.08;;
3789;SDS011;1910;49.042;9.028;2023-03-24T13:13:22;2.55;;;0.88;;
3789;SDS011;1910;49.042;9.028;2023-03-24T13:15:54;3.25;;;0.73;;
3789;SDS011;1910;49.042;9.028;2023-03-24T13:18:33;2.40;;;0.60;;
3789;SDS011;1910;49.042;9.028;2023-03-24T13:21:05;1.35;;;0.82;;
3789;SDS011;1910;49.042;9.028;2023-03-24T13:23:53;2.47;;;0.88;;
3789;SDS011;1910;49.042;9.028;2023-03-24T13:26:38;1.60;;;1.20;;
3789;SDS011;1910;49.042;9.028;2023-03-24T13:31:59;2.45;;;0.75;;
3789;SDS011;1910;49.042;9.028;2023-03-24T13:34:39;14.13;;;1.27;;
3789;SDS011;1910;49.042;9.028;2023-03-24T13:37:14;3.13;;;0.80;;
3789;SDS011;1910;49.042;9.028;2023-03-24T13:39:46;1.83;;;0.60;;
3789;SDS011;1910;49.042;9.028;2023-03-24T13:42:31;4.65;;;1.08;;
3789;SDS011;1910;49.042;9.028;2023-03-24T13:45:00;6.05;;;1.45;;
3789;SDS011;1910;49.042;9.028;2023-03-24T13:50:40;9.95;;;1.60;;
3789;SDS011;1910;49.042;9.028;2023-03-24T13:53:15;2.28;;;1.05;;
3789;SDS011;1910;49.042;9.028;2023-03-24T13:55:47;2.92;;;1.42;;
3789;SDS011;1910;49.042;9.028;2023-03-24T13:58:18;3.03;;;1.38;;
3789;SDS011;1910;49.042;9.028;2023-03-24T14:06:02;1.05;;;0.93;;
3789;SDS011;1910;49.042;9.028;2023-03-24T14:11:04;2.70;;;1.20;;
3789;SDS011;1910;49.042;9.028;2023-03-24T14:13:33;2.87;;;1.03;;
3789;SDS011;1910;49.042;9.028;2023-03-24T14:16:25;2.27;;;0.90;;
3789;SDS011;1910;49.042;9.028;2023-03-24T14:19:17;4.35;;;1.40;;
3789;SDS011;1910;49.042;9.028;2023-03-24T14:21:52;4.85;;;0.90;;
3789;SDS011;1910;49.042;9.028;2023-03-24T14:24:24;5.75;;;1.65;;
3789;SDS011;1910;49.042;9.028;2023-03-24T14:26:52;3.72;;;1.17;;
3789;SDS011;1910;49.042;9.028;2023-03-24T14:32:03;3.97;;;1.20;;
3789;SDS011;1910;49.042;9.028;2023-03-24T14:34:30;5.20;;;1.20;;
3789;SDS011;1910;49.042;9.028;2023-03-24T14:36:58;3.10;;;0.93;;
3789;SDS011;1910;49.042;9.028;2023-03-24T14:41:59;1.73;;;1.60;;
3789;SDS011;1910;49.042;9.028;2023-03-24T14:47:23;4.22;;;0.77;;
3789;SDS011;1910;49.042;9.028;2023-03-24T14:49:52;0.90;;;0.77;;
3789;SDS011;1910;49.042;9.028;2023-03-24T14:52:24;7.43;;;1.23;;
3789;SDS011;1910;49.042;9.028;2023-03-24T14:55:03;1.37;;;1.07;;
3789;SDS011;1910;49.042;9.028;2023-03-24T14:57:38;2.90;;;0.77;;
3789;SDS011;1910;49.042;9.028;2023-03-24T15:02:42;1.90;;;0.87;;
3789;SDS011;1910;49.042;9.028;2023-03-24T15:07:41;0.70;;;0.50;;
3789;SDS011;1910;49.042;9.028;2023-03-24T15:10:14;4.10;;;0.90;;
3789;SDS011;1910;49.042;9.028;2023-03-24T15:12:42;2.17;;;1.10;;
3789;SDS011;1910;49.042;9.028;2023-03-24T15:15:13;3.80;;;1.10;;
3789;SDS011;1910;49.042;9.028;2023-03-24T15:17:41;4.00;;;0.90;;
3789;SDS011;1910;49.042;9.028;2023-03-24T15:20:18;3.60;;;0.97;;
3789;SDS011;1910;49.042;9.028;2023-03-24T15:22:49;1.60;;;1.17;;
3789;SDS011;1910;49.042;9.028;2023-03-24T15:25:18;1.13;;;0.98;;
3789;SDS011;1910;49.042;9.028;2023-03-24T15:27:49;3.90;;;1.47;;
3789;SDS011;1910;49.042;9.028;2023-03-24T15:30:16;2.50;;;1.43;;
3789;SDS011;1910;49.042;9.028;2023-03-24T15:32:42;1.50;;;0.80;;
3789;SDS011;1910;49.042;9.028;2023-03-24T15:35:12;1.00;;;0.75;;
3789;SDS011;1910;49.042;9.028;2023-03-24T15:37:40;1.77;;;0.90;;
3789;SDS011;1910;49.042;9.028;2023-03-24T15:43:17;1.33;;;1.10;;
3789;SDS011;1910;49.042;9.028;2023-03-24T15:45:48;1.90;;;1.37;;
3789;SDS011;1910;49.042;9.028;2023-03-24T15:48:17;1.92;;;1.52;;
3789;SDS011;1910;49.042;9.028;2023-03-24T15:51:04;1.60;;;0.90;;
3789;SDS011;1910;49.042;9.028;2023-03-24T15:56:26;2.73;;;0.80;;
3789;SDS011;1910;49.042;9.028;2023-03-24T16:01:28;1.17;;;0.80;;
3789;SDS011;1910;49.042;9.028;2023-03-24T16:04:13;2.30;;;0.80;;
3789;SDS011;1910;49.042;9.028;2023-03-24T16:06:47;2.93;;;1.03;;
3789;SDS011;1910;49.042;9.028;2023-03-24T16:09:16;3.70;;;0.93;;
3789;SDS011;1910;49.042;9.028;2023-03-24T16:11:45;2.40;;;1.03;;
3789;SDS011;1910;49.042;9.028;2023-03-24T16:14:22;4.17;;;0.80;;
3789;SDS011;1910;49.042;9.028;2023-03-24T16:16:56;1.60;;;1.07;;
3789;SDS011;1910;49.042;9.028;2023-03-24T16:19:24;1.40;;;0.73;;
3789;SDS011;1910;49.042;9.028;2023-03-24T16:21:50;2.20;;;0.90;;
3789;SDS011;1910;49.042;9.028;2023-03-24T16:24:16;4.43;;;1.30;;
3789;SDS011;1910;49.042;9.028;2023-03-24T16:26:41;1.40;;;0.87;;
3789;SDS011;1910;49.042;9.028;2023-03-24T16:29:15;1.43;;;0.97;;
3789;SDS011;1910;49.042;9.028;2023-03-24T16:31:43;1.90;;;1.40;;
3789;SDS011;1910;49.042;9.028;2023-03-24T16:34:13;1.40;;;0.70;;
3789;SDS011;1910;49.042;9.028;2023-03-24T16:36:39;2.07;;;0.80;;
3789;SDS011;1910;49.042;9.028;2023-03-24T16:39:08;1.10;;;0.70;;
3789;SDS011;1910;49.042;9.028;2023-03-24T16:41:40;0.80;;;0.53;;
3789;SDS011;1910;49.042;9.028;2023-03-24T16:44:05;1.13;;;0.90;;
3789;SDS011;1910;49.042;9.028;2023-03-24T16:46:31;1.47;;;1.00;;
3789;SDS011;1910;49.042;9.028;2023-03-24T16:48:58;1.70;;;0.73;;
3789;SDS011;1910;49.042;9.028;2023-03-24T16:51:25;0.90;;;0.60;;
3789;SDS011;1910;49.042;9.028;2023-03-24T16:53:51;3.30;;;1.00;;
3789;SDS011;1910;49.042;9.028;2023-03-24T16:56:17;2.17;;;1.30;;
3789;SDS011;1910;49.042;9.028;2023-03-24T16:58:44;10.23;;;1.20;;
3789;SDS011;1910;49.042;9.028;2023-03-24T17:01:19;1.67;;;1.07;;
3789;SDS011;1910;49.042;9.028;2023-03-24T17:03:52;1.20;;;0.93;;
3789;SDS011;1910;49.042;9.028;2023-03-24T17:06:19;3.77;;;1.07;;
3789;SDS011;1910;49.042;9.028;2023-03-24T17:08:45;4.57;;;1.30;;
3789;SDS011;1910;49.042;9.028;2023-03-24T17:11:11;2.10;;;1.20;;
3789;SDS011;1910;49.042;9.028;2023-03-24T17:13:37;2.10;;;1.07;;
3789;SDS011;1910;49.042;9.028;2023-03-24T17:16:02;2.40;;;1.10;;
3789;SDS011;1910;49.042;9.028;2023-03-24T17:18:29;3.73;;;1.10;;
3789;SDS011;1910;49.042;9.028;2023-03-24T17:20:55;4.13;;;1.13;;
3789;SDS011;1910;49.042;9.028;2023-03-24T17:23:21;3.50;;;1.23;;
3789;SDS011;1910;49.042;9.028;2023-03-24T17:25:47;2.23;;;0.80;;
3789;SDS011;1910;49.042;9.028;2023-03-24T17:28:13;2.13;;;1.00;;
3789;SDS011;1910;49.042;9.028;2023-03-24T17:30:39;8.50;;;1.10;;
3789;SDS011;1910;49.042;9.028;2023-03-24T17:33:05;2.92;;;1.00;;
3789;SDS011;1910;49.042;9.028;2023-03-24T17:35:35;1.42;;;1.30;;
3789;SDS011;1910;49.042;9.028;2023-03-24T17:38:00;1.20;;;1.10;;
3789;SDS011;1910;49.042;9.028;2023-03-24T17:40:26;3.10;;;1.17;;
3789;SDS011;1910;49.042;9.028;2023-03-24T17:42:52;2.23;;;1.27;;
3789;SDS011;1910;49.042;9.028;2023-03-24T17:45:17;2.30;;;0.90;;